createdAt,value
2016-12-21T00:00:02.325Z,102.53
2016-12-21T00:05:02.696Z,102.52
2016-12-21T00:10:03.073Z,102.42
2016-12-21T00:15:02.421Z,102.27
2016-12-21T00:20:02.905Z,102.15
2016-12-21T00:25:02.247Z,102.13
2016-12-21T00:30:02.639Z,102.08
2016-12-21T00:35:03.016Z,101.85
2016-12-21T00:40:02.405Z,101.81
2016-12-21T00:45:02.755Z,101.96
2016-12-21T00:50:02.119Z,101.96
2016-12-21T00:55:02.526Z,101.87
2016-12-21T01:00:02.887Z,101.88
2016-12-21T01:05:02.258Z,101.91
2016-12-21T01:10:02.606Z,102.01
2016-12-21T01:15:02.974Z,101.94
2016-12-21T01:20:02.372Z,101.87
2016-12-21T01:25:02.709Z,102.01
2016-12-21T01:30:02.055Z,101.88
2016-12-21T01:35:02.458Z,101.89
2016-12-21T01:40:02.826Z,101.71
2016-12-21T01:45:02.181Z,101.79
2016-12-21T01:50:02.504Z,101.81
2016-12-21T01:55:02.848Z,101.84
2016-12-21T02:00:02.220Z,101.95
2016-12-21T02:05:02.571Z,102.01
2016-12-21T02:10:02.945Z,101.91
2016-12-21T02:15:02.293Z,101.93
2016-12-21T02:20:02.750Z,102.01
2016-12-21T02:25:02.113Z,102.13
2016-12-21T02:30:02.553Z,102.17
2016-12-21T02:35:02.897Z,102.14
2016-12-21T02:40:02.290Z,102.31
2016-12-21T02:45:02.641Z,102.3
2016-12-21T02:50:02.979Z,102.15
2016-12-21T02:55:02.336Z,102.07
2016-12-21T03:00:02.705Z,101.97
2016-12-21T03:05:03.037Z,102.04
2016-12-21T03:10:02.438Z,101.51
2016-12-21T03:15:02.781Z,101.88
2016-12-21T03:20:02.270Z,101.61
2016-12-21T03:25:02.668Z,101.51
2016-12-21T03:30:03.011Z,101.92
2016-12-21T03:35:02.354Z,102
2016-12-21T03:40:02.736Z,101.69
2016-12-21T03:45:02.050Z,101.55
2016-12-21T03:50:02.440Z,101.49
2016-12-21T03:55:02.789Z,101.49
2016-12-21T04:00:02.138Z,101.46
2016-12-21T04:05:02.523Z,101.65
2016-12-21T04:10:02.917Z,101.62
2016-12-21T04:15:02.309Z,101.61
2016-12-21T04:20:02.752Z,101.58
2016-12-21T04:25:02.092Z,101.46
2016-12-21T04:30:02.524Z,101.29
2016-12-21T04:35:02.866Z,101.2
2016-12-21T04:40:02.305Z,101.62
2016-12-21T04:45:02.695Z,101.57
2016-12-21T04:50:02.012Z,101.69
2016-12-21T04:55:02.388Z,101.72
2016-12-21T05:00:02.774Z,101.57
2016-12-21T05:05:02.145Z,101.55
2016-12-21T05:10:02.636Z,101.73
2016-12-21T05:15:03.016Z,101.16
2016-12-21T05:20:02.470Z,101.25
2016-12-21T05:25:02.885Z,100.65
2016-12-21T05:30:02.268Z,100.33
2016-12-21T05:35:02.606Z,100.27
2016-12-21T05:40:02.974Z,99.79
2016-12-21T05:45:02.338Z,100.42
2016-12-21T05:50:02.703Z,100.01
2016-12-21T05:55:02.031Z,100.11
2016-12-21T06:00:02.446Z,99.43
2016-12-21T06:05:02.802Z,99.59
2016-12-21T06:10:02.183Z,99.46
2016-12-21T06:15:02.522Z,99.86
2016-12-21T06:20:02.959Z,99.92
2016-12-21T06:25:02.344Z,99.94
2016-12-21T06:30:02.679Z,100.27
2016-12-21T06:35:03.034Z,99.47
2016-12-21T06:40:02.366Z,99.85
2016-12-21T06:45:02.695Z,98.99
2016-12-21T06:50:02.037Z,99.77
2016-12-21T06:55:02.429Z,99.82
2016-12-21T07:00:02.801Z,99.84
2016-12-21T07:05:02.173Z,100.02
2016-12-21T07:10:02.587Z,100.15
2016-12-21T07:15:02.951Z,99.89
2016-12-21T07:20:02.400Z,99.9
2016-12-21T07:25:02.751Z,99.92
2016-12-21T07:30:02.093Z,100.02
2016-12-21T07:35:02.462Z,100.04
2016-12-21T07:40:02.824Z,99.95
2016-12-21T07:45:02.196Z,100.08
2016-12-21T07:50:02.563Z,100.22
2016-12-21T07:55:02.936Z,100.24
2016-12-21T08:00:02.298Z,100.28
2016-12-21T08:05:02.645Z,100.38
2016-12-21T08:10:03.031Z,100.6
2016-12-21T08:15:02.374Z,100.82
2016-12-21T08:20:02.844Z,101.03
2016-12-21T08:25:02.199Z,101.06
2016-12-21T08:30:02.574Z,101.06
2016-12-21T08:35:02.984Z,101.18
2016-12-21T08:40:02.326Z,101.31
2016-12-21T08:45:02.653Z,101.23
2016-12-21T08:50:03.032Z,101.17
2016-12-21T08:55:02.434Z,101.04
2016-12-21T09:00:02.842Z,100.98
2016-12-21T09:05:02.208Z,100.81
2016-12-21T09:10:02.592Z,100.67
2016-12-21T09:15:02.932Z,100.65
2016-12-21T09:20:02.483Z,100.61
2016-12-21T09:25:02.814Z,100.66
2016-12-21T09:30:02.162Z,100.7
2016-12-21T09:35:02.523Z,100.41
2016-12-21T09:40:02.900Z,100.01
2016-12-21T09:45:02.253Z,100.08
2016-12-21T09:50:02.616Z,99.97
2016-12-21T09:55:02.954Z,99.79
2016-12-21T10:00:02.308Z,99.78
2016-12-21T10:05:02.644Z,99.61
2016-12-21T10:10:03.001Z,99.46
2016-12-21T10:15:02.310Z,99.36
2016-12-21T10:20:02.705Z,98.86
2016-12-21T10:25:02.078Z,99.27
2016-12-21T10:30:02.446Z,98.85
2016-12-21T10:35:02.786Z,98.07
2016-12-21T10:40:02.115Z,98.05
2016-12-21T10:45:02.470Z,97.76
2016-12-21T10:50:02.821Z,98.01
2016-12-21T10:55:02.180Z,98.24
2016-12-21T11:00:02.545Z,97.14
2016-12-21T11:05:02.920Z,97.12
2016-12-21T11:10:02.287Z,97.32
2016-12-21T11:15:02.726Z,97.01
2016-12-21T11:20:02.557Z,97.24
2016-12-21T11:25:02.912Z,95.33
2016-12-21T11:30:02.546Z,95.56
2016-12-21T11:35:02.989Z,94.65
2016-12-21T11:40:02.354Z,93.38
2016-12-21T11:45:02.714Z,92.67
2016-12-21T11:50:02.058Z,87.17
2016-12-21T11:55:02.442Z,86.05
2016-12-21T12:00:02.707Z,87.39
2016-12-21T12:05:02.023Z,85.38
2016-12-21T12:10:02.888Z,87.99
2016-12-21T12:15:02.892Z,88.95
2016-12-21T12:20:02.241Z,89.28
2016-12-21T12:25:02.484Z,89.56
2016-12-21T12:30:02.743Z,89.65
2016-12-21T12:35:02.986Z,88.55
2016-12-21T12:40:02.222Z,89.58
2016-12-21T12:45:02.584Z,89.32
2016-12-21T12:50:02.945Z,89.09
2016-12-21T12:55:02.320Z,90.47
2016-12-21T13:00:02.703Z,90.39
2016-12-21T13:05:03.026Z,90.53
2016-12-21T13:10:02.385Z,90.89
2016-12-21T13:15:02.742Z,90.93
2016-12-21T13:20:02.201Z,91.59
2016-12-21T13:25:02.553Z,91.42
2016-12-21T13:30:02.944Z,91.81
2016-12-21T13:35:02.315Z,91.24
2016-12-21T13:40:02.655Z,92.18
2016-12-21T13:45:03.028Z,92.41
2016-12-21T13:50:02.382Z,92.83
2016-12-21T13:55:02.784Z,92.69
2016-12-21T14:00:02.177Z,93
2016-12-21T14:05:02.564Z,93.16
2016-12-21T14:10:02.971Z,93.34
2016-12-21T14:15:02.347Z,93.32
2016-12-21T14:20:02.820Z,93.33
2016-12-21T14:25:02.164Z,93.19
2016-12-21T14:30:02.552Z,93.62
2016-12-21T14:35:02.919Z,93.65
2016-12-21T14:40:02.264Z,93.94
2016-12-21T14:45:02.673Z,94.02
2016-12-21T14:50:03.065Z,93.84
2016-12-21T14:55:02.431Z,94.11
2016-12-21T15:00:02.812Z,94.35
2016-12-21T15:05:02.187Z,94.82
2016-12-21T15:10:02.576Z,95.03
2016-12-21T15:15:02.951Z,95.44
2016-12-21T15:20:02.421Z,95.55
2016-12-21T15:25:02.813Z,95.64
2016-12-21T15:30:02.184Z,95.8
2016-12-21T15:35:02.537Z,95.96
2016-12-21T15:40:02.908Z,96.15
2016-12-21T15:45:02.269Z,96.31
2016-12-21T15:50:02.582Z,96.41
2016-12-21T15:55:02.954Z,96.59
2016-12-21T16:00:02.310Z,96.85
2016-12-21T16:05:02.679Z,96.82
2016-12-21T16:10:03.031Z,97.09
2016-12-21T16:15:03.089Z,97.12
2016-12-21T16:20:02.318Z,97.15
2016-12-21T16:25:02.652Z,97.18
2016-12-21T16:30:03.019Z,97.21
2016-12-21T16:35:02.421Z,97.44
2016-12-21T16:40:02.781Z,97.4
2016-12-21T16:45:02.104Z,97.34
2016-12-21T16:50:02.582Z,97.6
2016-12-21T16:55:02.995Z,97.79
2016-12-21T17:00:02.379Z,97.47
2016-12-21T17:05:02.758Z,97.61
2016-12-21T17:10:02.131Z,97.85
2016-12-21T17:15:02.555Z,97.87
2016-12-21T17:20:03.001Z,97.73
2016-12-21T17:25:02.377Z,98.05
2016-12-21T17:30:02.757Z,98.11
2016-12-21T17:35:02.095Z,98.07
2016-12-21T17:40:02.493Z,98.26
2016-12-21T17:45:02.875Z,98.29
2016-12-21T17:50:02.248Z,98.36
2016-12-21T17:55:02.686Z,98.24
2016-12-21T18:00:02.208Z,98.26
2016-12-21T18:05:02.703Z,98.4
2016-12-21T18:10:02.219Z,98.51
2016-12-21T18:15:10.457Z,98.61
2016-12-21T18:20:03.061Z,98.52
2016-12-21T18:25:09.734Z,98.69
2016-12-21T18:30:10.847Z,98.38
2016-12-21T18:35:04.562Z,98.36
2016-12-21T18:40:02.701Z,98.43
2016-12-21T18:45:02.474Z,98.29
2016-12-21T18:50:02.870Z,98.3
2016-12-21T18:55:02.675Z,98.35
2016-12-21T19:00:02.178Z,98.4
2016-12-21T19:05:02.735Z,98.5
2016-12-21T19:10:02.132Z,98.57
2016-12-21T19:15:02.508Z,98.59
2016-12-21T19:20:03.003Z,98.65
2016-12-21T19:25:02.867Z,98.63
2016-12-21T19:30:02.444Z,98.64
2016-12-21T19:35:02.827Z,98.69
2016-12-21T19:40:02.228Z,98.71
2016-12-21T19:45:02.798Z,98.7
2016-12-21T19:50:02.594Z,98.69
2016-12-21T19:55:02.945Z,98.8
2016-12-21T20:00:02.349Z,98.83
2016-12-21T20:05:02.729Z,98.79
2016-12-21T20:10:02.728Z,98.72
2016-12-21T20:15:02.303Z,98.66
2016-12-21T20:20:02.856Z,98.56
2016-12-21T20:25:02.240Z,98.76
2016-12-21T20:30:02.616Z,98.73
2016-12-21T20:35:02.992Z,98.8
2016-12-21T20:40:02.405Z,98.7
2016-12-21T20:45:02.858Z,98.71
2016-12-21T20:50:02.252Z,98.85
2016-12-21T20:55:02.663Z,98.81
2016-12-21T21:00:02.071Z,98.96
2016-12-21T21:05:02.538Z,99.1
2016-12-21T21:10:02.911Z,99.09
2016-12-21T21:15:02.281Z,99.12
2016-12-21T21:20:02.752Z,99.14
2016-12-21T21:25:02.156Z,99.25
2016-12-21T21:30:02.959Z,99.38
2016-12-21T21:35:02.466Z,99.21
2016-12-21T21:40:03.229Z,99.49
2016-12-21T21:45:02.748Z,99.41
2016-12-21T21:50:02.500Z,99.36
2016-12-21T21:55:03.050Z,99.27
2016-12-21T22:00:02.616Z,99.06
2016-12-21T22:05:03.159Z,98.89
2016-12-21T22:10:02.658Z,98.89
2016-12-21T22:15:02.153Z,98.77
2016-12-21T22:20:02.678Z,98.58
2016-12-21T22:25:02.061Z,98.44
2016-12-21T22:30:02.434Z,98.58
2016-12-21T22:35:03.306Z,98.69
2016-12-21T22:40:02.204Z,98.46
2016-12-21T22:45:02.609Z,98.21
2016-12-21T22:50:03.022Z,98.15
2016-12-21T22:55:02.992Z,97.86
2016-12-21T23:00:02.669Z,97.54
2016-12-21T23:05:02.090Z,97.97
2016-12-21T23:10:02.819Z,97.57
2016-12-21T23:15:02.301Z,97.54
2016-12-21T23:20:02.789Z,97.85
2016-12-21T23:25:02.193Z,97.62
2016-12-21T23:30:02.619Z,97.42
2016-12-21T23:35:02.143Z,97.2
2016-12-21T23:40:02.589Z,96.92
2016-12-21T23:45:02.999Z,96.91
2016-12-21T23:50:02.614Z,96.97
2016-12-21T23:55:02.988Z,97.21
